createdAt,value
2023-02-20T00:00:10.643Z,10.95
2023-02-20T00:02:37.273Z,10.75
2023-02-20T00:05:03.993Z,10.98
2023-02-20T00:07:30.608Z,11.07
2023-02-20T00:09:57.210Z,10.02
2023-02-20T00:12:23.826Z,10.02
2023-02-20T00:14:50.425Z,11.20
2023-02-20T00:17:17.049Z,12.05
2023-02-20T00:19:43.656Z,13.02
2023-02-20T00:22:10.291Z,10.95
2023-02-20T00:24:36.898Z,15.07
2023-02-20T00:27:03.552Z,11.43
2023-02-20T00:29:30.688Z,13.68
2023-02-20T00:31:58.310Z,13.60
2023-02-20T00:34:26.938Z,12.73
2023-02-20T00:36:53.556Z,14.23
2023-02-20T00:39:20.232Z,13.60
2023-02-20T00:41:46.922Z,14.02
2023-02-20T00:44:13.559Z,13.73
2023-02-20T00:46:40.203Z,11.82
2023-02-20T00:49:06.929Z,13.88
2023-02-20T00:51:35.627Z,14.57
2023-02-20T00:54:02.521Z,19.20
2023-02-20T00:56:29.533Z,13.57
2023-02-20T00:58:56.226Z,13.88
2023-02-20T01:01:22.967Z,15.27
2023-02-20T01:03:49.616Z,12.07
2023-02-20T01:06:16.267Z,13.93
2023-02-20T01:08:42.892Z,12.50
2023-02-20T01:11:09.500Z,13.07
2023-02-20T01:13:36.114Z,15.15
2023-02-20T01:16:03.017Z,11.40
2023-02-20T01:18:29.631Z,13.18
2023-02-20T01:20:56.253Z,13.27
2023-02-20T01:23:22.940Z,12.32
2023-02-20T01:25:49.545Z,12.38
2023-02-20T01:28:16.268Z,12.35
2023-02-20T01:30:42.905Z,13.85
2023-02-20T01:33:09.878Z,12.25
2023-02-20T01:35:36.747Z,14.60
2023-02-20T01:38:06.543Z,13.38
2023-02-20T01:40:34.169Z,14.55
2023-02-20T01:43:01.210Z,14.20
2023-02-20T01:45:36.103Z,11.35
2023-02-20T01:48:02.839Z,11.43
2023-02-20T01:50:37.573Z,11.73
2023-02-20T01:53:12.620Z,12.75
2023-02-20T01:55:43.240Z,12.05
2023-02-20T01:58:24.254Z,14.23
2023-02-20T02:00:51.099Z,11.80
2023-02-20T02:03:26.074Z,15.73
2023-02-20T02:05:58.262Z,14.45
2023-02-20T02:08:24.963Z,14.20
2023-02-20T02:11:09.909Z,17.05
2023-02-20T02:13:37.972Z,14.73
2023-02-20T02:16:37.166Z,15.40
2023-02-20T02:19:22.955Z,15.65
2023-02-20T02:22:09.794Z,16.90
2023-02-20T02:24:39.754Z,17.10
2023-02-20T02:27:17.647Z,13.75
2023-02-20T02:30:03.225Z,15.93
2023-02-20T02:33:15.280Z,15.02
2023-02-20T02:36:10.200Z,15.40
2023-02-20T02:38:52.932Z,15.38
2023-02-20T02:41:31.263Z,20.10
2023-02-20T02:44:00.246Z,15.27
2023-02-20T02:46:28.208Z,19.67
2023-02-20T02:49:00.260Z,17.95
2023-02-20T02:51:29.491Z,16.95
2023-02-20T02:54:10.478Z,22.17
2023-02-20T02:56:38.180Z,17.15
2023-02-20T02:59:05.212Z,17.95
2023-02-20T03:01:32.016Z,17.40
2023-02-20T03:03:58.920Z,15.70
2023-02-20T03:06:29.217Z,18.25
2023-02-20T03:09:06.881Z,15.25
2023-02-20T03:11:33.600Z,15.00
2023-02-20T03:14:28.477Z,17.48
2023-02-20T03:19:36.533Z,19.98
2023-02-20T03:22:04.212Z,17.40
2023-02-20T03:24:30.884Z,16.33
2023-02-20T03:26:57.608Z,14.80
2023-02-20T03:29:30.647Z,11.85
2023-02-20T03:32:25.826Z,10.80
2023-02-20T03:35:11.428Z,10.55
2023-02-20T03:37:56.340Z,11.45
2023-02-20T03:40:41.767Z,9.90
2023-02-20T03:43:21.839Z,9.25
2023-02-20T03:45:48.815Z,8.73
2023-02-20T03:48:19.740Z,11.95
2023-02-20T03:50:46.392Z,6.60
2023-02-20T03:53:13.078Z,5.88
2023-02-20T03:55:39.710Z,6.15
2023-02-20T03:58:08.600Z,6.45
2023-02-20T04:00:38.954Z,7.43
2023-02-20T04:03:12.620Z,11.15
2023-02-20T04:05:44.761Z,6.90
2023-02-20T04:08:16.946Z,6.35
2023-02-20T04:11:10.868Z,6.50
2023-02-20T04:13:38.835Z,6.73
2023-02-20T04:16:05.828Z,10.27
2023-02-20T04:18:32.833Z,8.90
2023-02-20T04:20:59.583Z,9.23
2023-02-20T04:23:26.696Z,11.43
2023-02-20T04:25:57.891Z,12.15
2023-02-20T04:28:24.668Z,15.93
2023-02-20T04:30:51.427Z,12.77
2023-02-20T04:33:18.343Z,13.68
2023-02-20T04:35:44.968Z,14.90
2023-02-20T04:38:11.706Z,15.02
2023-02-20T04:40:38.404Z,14.88
2023-02-20T04:43:05.055Z,15.90
2023-02-20T04:45:32.575Z,14.65
2023-02-20T04:47:59.202Z,14.57
2023-02-20T04:50:31.108Z,14.93
2023-02-20T04:52:58.157Z,16.05
2023-02-20T04:55:25.092Z,15.48
2023-02-20T04:57:53.761Z,18.17
2023-02-20T05:00:22.053Z,23.45
2023-02-20T05:02:48.750Z,21.30
2023-02-20T05:05:16.803Z,18.65
2023-02-20T05:07:43.441Z,23.35
2023-02-20T05:10:14.094Z,21.67
2023-02-20T05:12:40.706Z,25.52
2023-02-20T05:15:07.870Z,23.48
2023-02-20T05:17:34.492Z,24.63
2023-02-20T05:20:01.172Z,25.27
2023-02-20T05:22:27.916Z,26.73
2023-02-20T05:24:54.793Z,26.95
2023-02-20T05:27:22.317Z,27.20
2023-02-20T05:29:50.548Z,30.92
2023-02-20T05:32:19.573Z,32.10
2023-02-20T05:34:46.314Z,34.25
2023-02-20T05:37:13.503Z,33.28
2023-02-20T05:39:40.223Z,29.63
2023-02-20T05:42:07.482Z,31.98
2023-02-20T05:44:34.845Z,32.20
2023-02-20T05:47:01.865Z,31.65
2023-02-20T05:49:30.794Z,35.65
2023-02-20T05:51:57.603Z,32.50
2023-02-20T05:54:24.481Z,33.22
2023-02-20T05:56:51.416Z,38.00
2023-02-20T05:59:22.588Z,35.75
2023-02-20T06:01:52.636Z,33.10
2023-02-20T06:04:19.557Z,34.30
2023-02-20T06:06:46.296Z,36.17
2023-02-20T06:09:13.174Z,33.28
2023-02-20T06:11:39.894Z,30.20
2023-02-20T06:14:06.749Z,34.83
2023-02-20T06:16:34.410Z,36.25
2023-02-20T06:19:01.141Z,36.05
2023-02-20T06:21:27.992Z,35.80
2023-02-20T06:23:54.980Z,42.20
2023-02-20T06:26:22.566Z,33.22
2023-02-20T06:28:50.888Z,34.13
2023-02-20T06:31:22.039Z,36.88
2023-02-20T06:33:48.675Z,34.75
2023-02-20T06:36:25.957Z,28.80
2023-02-20T06:38:52.653Z,31.40
2023-02-20T06:41:19.381Z,33.70
2023-02-20T06:43:46.016Z,33.65
2023-02-20T06:46:12.901Z,30.65
2023-02-20T06:48:47.111Z,36.50
2023-02-20T06:51:16.140Z,34.63
2023-02-20T06:53:42.825Z,33.20
2023-02-20T06:56:11.164Z,29.35
2023-02-20T06:58:38.025Z,34.17
2023-02-20T07:01:04.803Z,28.40
2023-02-20T07:03:31.445Z,28.52
2023-02-20T07:05:58.576Z,34.08
2023-02-20T07:08:25.190Z,28.08
2023-02-20T07:10:51.815Z,27.77
2023-02-20T07:13:18.429Z,26.60
2023-02-20T07:15:45.078Z,27.65
2023-02-20T07:18:11.686Z,28.40
2023-02-20T07:20:38.535Z,27.98
2023-02-20T07:23:05.226Z,26.83
2023-02-20T07:25:31.897Z,24.85
2023-02-20T07:27:58.508Z,25.92
2023-02-20T07:30:25.401Z,22.75
2023-02-20T07:32:52.182Z,24.67
2023-02-20T07:35:18.842Z,22.27
2023-02-20T07:37:45.469Z,23.05
2023-02-20T07:40:12.629Z,25.17
2023-02-20T07:42:39.250Z,21.55
2023-02-20T07:45:06.183Z,19.30
2023-02-20T07:47:32.798Z,21.95
2023-02-20T07:49:59.436Z,15.50
2023-02-20T07:52:26.920Z,16.25
2023-02-20T07:54:53.609Z,20.02
2023-02-20T07:57:20.234Z,18.65
2023-02-20T07:59:46.895Z,19.58
2023-02-20T08:02:13.509Z,14.60
2023-02-20T08:04:40.118Z,21.70
2023-02-20T08:07:07.139Z,19.10
2023-02-20T08:09:33.759Z,22.35
2023-02-20T08:12:00.371Z,17.92
2023-02-20T08:14:28.423Z,20.05
2023-02-20T08:16:55.042Z,16.20
2023-02-20T08:19:21.953Z,16.63
2023-02-20T08:21:48.859Z,15.60
2023-02-20T08:24:15.504Z,17.25
2023-02-20T08:26:45.817Z,17.48
2023-02-20T08:29:12.794Z,15.88
2023-02-20T08:31:39.571Z,13.38
2023-02-20T08:34:06.667Z,17.15
2023-02-20T08:36:33.562Z,17.60
2023-02-20T08:39:00.324Z,16.73
2023-02-20T08:41:27.069Z,17.30
2023-02-20T08:43:53.955Z,17.90
2023-02-20T08:46:20.863Z,15.90
2023-02-20T08:48:47.478Z,16.30
2023-02-20T08:51:17.209Z,16.63
2023-02-20T08:53:43.823Z,15.95
2023-02-20T08:56:10.683Z,16.85
2023-02-20T08:58:37.668Z,11.68
2023-02-20T09:01:05.426Z,15.27
2023-02-20T09:03:34.653Z,17.13
2023-02-20T09:06:01.814Z,17.65
2023-02-20T09:08:28.728Z,14.65
2023-02-20T09:10:55.535Z,12.40
2023-02-20T09:13:22.305Z,17.52
2023-02-20T09:15:48.932Z,10.52
2023-02-20T09:18:15.644Z,12.27
2023-02-20T09:20:42.502Z,15.43
2023-02-20T09:23:09.212Z,14.23
2023-02-20T09:25:36.113Z,10.73
2023-02-20T09:28:02.763Z,12.73
2023-02-20T09:30:29.420Z,16.88
2023-02-20T09:32:56.047Z,11.43
2023-02-20T09:35:27.363Z,13.50
2023-02-20T09:37:54.072Z,10.93
2023-02-20T09:40:28.342Z,13.07
2023-02-20T09:45:43.065Z,10.85
2023-02-20T09:48:38.779Z,12.50
2023-02-20T09:51:08.793Z,14.05
2023-02-20T09:53:57.057Z,11.88
2023-02-20T09:56:26.679Z,9.38
2023-02-20T09:59:13.607Z,9.95
2023-02-20T10:02:02.017Z,10.85
2023-02-20T10:04:36.099Z,8.70
2023-02-20T10:07:21.392Z,11.00
2023-02-20T10:09:48.011Z,10.63
2023-02-20T10:12:38.347Z,13.15
2023-02-20T10:15:15.647Z,9.82
2023-02-20T10:18:00.403Z,8.35
2023-02-20T10:23:07.795Z,8.82
2023-02-20T10:25:40.054Z,11.60
2023-02-20T10:28:13.287Z,9.40
2023-02-20T10:30:45.628Z,8.98
2023-02-20T10:33:37.871Z,9.70
2023-02-20T10:36:09.080Z,7.88
2023-02-20T10:38:47.054Z,7.93
2023-02-20T10:41:36.379Z,9.57
2023-02-20T10:44:24.909Z,7.68
2023-02-20T10:47:16.632Z,9.80
2023-02-20T10:49:50.127Z,9.13
2023-02-20T10:52:31.761Z,10.63
2023-02-20T10:55:06.068Z,9.90
2023-02-20T10:57:35.044Z,8.90
2023-02-20T11:00:16.183Z,7.97
2023-02-20T11:02:57.585Z,5.70
2023-02-20T11:05:25.129Z,6.75
2023-02-20T11:07:51.793Z,6.93
2023-02-20T11:10:18.565Z,4.45
2023-02-20T11:12:50.236Z,7.38
2023-02-20T11:15:21.913Z,4.78
2023-02-20T11:17:56.351Z,6.00
2023-02-20T11:20:32.230Z,6.47
2023-02-20T11:22:59.444Z,5.82
2023-02-20T11:25:30.352Z,5.88
2023-02-20T11:28:00.924Z,4.95
2023-02-20T11:30:31.279Z,5.30
2023-02-20T11:33:02.104Z,4.18
2023-02-20T11:35:32.929Z,7.82
2023-02-20T11:38:21.205Z,8.32
2023-02-20T11:41:05.812Z,4.22
2023-02-20T11:46:17.309Z,5.53
2023-02-20T11:49:05.430Z,8.82
2023-02-20T11:51:41.403Z,7.43
2023-02-20T11:54:18.926Z,7.82
2023-02-20T11:57:02.554Z,5.55
2023-02-20T11:59:29.152Z,5.18
2023-02-20T12:02:01.169Z,4.22
2023-02-20T12:04:28.033Z,6.03
2023-02-20T12:06:54.672Z,5.82
2023-02-20T12:09:24.396Z,7.55
2023-02-20T12:11:52.808Z,3.72
2023-02-20T12:14:20.539Z,3.25
2023-02-20T12:16:50.295Z,4.70
2023-02-20T12:19:32.560Z,4.72
2023-02-20T12:22:11.520Z,4.32
2023-02-20T12:25:00.782Z,5.85
2023-02-20T12:27:50.696Z,6.03
2023-02-20T12:30:17.280Z,4.72
2023-02-20T12:33:15.015Z,2.65
2023-02-20T12:35:52.043Z,5.10
2023-02-20T12:38:44.323Z,5.35
2023-02-20T12:41:28.220Z,2.72
2023-02-20T12:44:13.191Z,3.22
2023-02-20T12:46:51.867Z,2.78
2023-02-20T12:49:40.951Z,5.43
2023-02-20T12:52:19.756Z,4.05
2023-02-20T12:55:09.003Z,5.07
2023-02-20T12:58:06.258Z,7.90
2023-02-20T13:00:34.955Z,3.55
2023-02-20T13:03:11.465Z,7.43
2023-02-20T13:05:40.152Z,7.68
2023-02-20T13:08:13.334Z,4.82
2023-02-20T13:10:58.562Z,4.95
2023-02-20T13:13:26.426Z,7.35
2023-02-20T13:15:59.171Z,5.05
2023-02-20T13:18:47.213Z,4.05
2023-02-20T13:21:15.519Z,3.88
2023-02-20T13:23:42.324Z,3.10
2023-02-20T13:26:27.222Z,5.68
2023-02-20T13:28:54.108Z,4.25
2023-02-20T13:31:37.607Z,5.85
2023-02-20T13:34:07.324Z,5.22
2023-02-20T13:36:46.726Z,6.03
2023-02-20T13:39:22.333Z,6.32
2023-02-20T13:41:55.189Z,4.93
2023-02-20T13:44:42.411Z,6.57
2023-02-20T13:47:22.195Z,6.35
2023-02-20T13:49:58.130Z,6.05
2023-02-20T13:52:40.490Z,5.07
2023-02-20T13:55:17.134Z,5.63
2023-02-20T13:57:55.528Z,5.90
2023-02-20T14:00:45.808Z,6.97
2023-02-20T14:03:29.338Z,5.38
2023-02-20T14:06:16.324Z,5.70
2023-02-20T14:09:06.727Z,6.35
2023-02-20T14:11:37.417Z,5.32
2023-02-20T14:14:09.715Z,5.93
2023-02-20T14:16:39.182Z,6.03
2023-02-20T14:19:26.415Z,3.08
2023-02-20T14:26:00.320Z,7.03
2023-02-20T14:31:04.553Z,6.25
2023-02-20T14:33:31.632Z,8.45
2023-02-20T14:36:04.282Z,4.50
2023-02-20T14:38:38.154Z,3.80
2023-02-20T14:41:22.058Z,6.70
2023-02-20T14:43:59.514Z,4.60
2023-02-20T14:46:28.164Z,7.57
2023-02-20T14:49:25.685Z,6.57
2023-02-20T14:51:52.992Z,4.55
2023-02-20T14:54:24.250Z,8.43
2023-02-20T14:56:51.991Z,8.77
2023-02-20T14:59:26.554Z,6.35
2023-02-20T15:01:56.072Z,8.10
2023-02-20T15:04:23.312Z,9.27
2023-02-20T15:06:50.791Z,9.98
2023-02-20T15:09:22.698Z,8.55
2023-02-20T15:11:56.384Z,8.75
2023-02-20T15:14:26.916Z,9.77
2023-02-20T15:17:15.481Z,8.48
2023-02-20T15:19:42.714Z,11.68
2023-02-20T15:22:32.128Z,11.25
2023-02-20T15:25:30.562Z,12.45
2023-02-20T15:28:24.703Z,10.15
2023-02-20T15:31:10.474Z,8.20
2023-02-20T15:33:42.640Z,14.70
2023-02-20T15:36:13.940Z,24.63
2023-02-20T15:38:41.004Z,20.10
2023-02-20T15:41:11.069Z,21.15
2023-02-20T15:43:47.917Z,14.30
2023-02-20T15:46:17.060Z,24.35
2023-02-20T15:48:44.059Z,15.65
2023-02-20T15:51:11.007Z,34.03
2023-02-20T15:53:38.738Z,15.88
2023-02-20T15:56:05.605Z,23.00
2023-02-20T15:58:39.228Z,22.67
2023-02-20T16:01:06.692Z,19.00
2023-02-20T16:03:41.758Z,14.82
2023-02-20T16:06:16.374Z,12.25
2023-02-20T16:08:44.524Z,11.63
2023-02-20T16:11:11.340Z,11.60
2023-02-20T16:13:39.960Z,13.77
2023-02-20T16:16:24.205Z,14.25
2023-02-20T16:21:20.322Z,16.50
2023-02-20T16:23:49.763Z,14.38
2023-02-20T16:26:21.395Z,15.60
2023-02-20T16:28:56.694Z,15.35
2023-02-20T16:31:24.655Z,18.35
2023-02-20T16:33:51.351Z,16.42
2023-02-20T16:36:24.693Z,13.20
2023-02-20T16:38:51.790Z,15.30
2023-02-20T16:41:18.502Z,18.55
2023-02-20T16:43:45.173Z,14.85
2023-02-20T16:46:12.144Z,14.73
2023-02-20T16:48:43.154Z,16.85
2023-02-20T16:51:11.310Z,18.45
2023-02-20T16:53:37.991Z,15.43
2023-02-20T16:56:04.715Z,19.55
2023-02-20T16:58:32.244Z,21.75
2023-02-20T17:00:58.874Z,20.13
2023-02-20T17:03:27.891Z,19.95
2023-02-20T17:05:59.437Z,14.43
2023-02-20T17:08:26.712Z,13.23
2023-02-20T17:10:53.367Z,13.60
2023-02-20T17:13:20.157Z,12.38
2023-02-20T17:15:47.715Z,11.88
2023-02-20T17:18:14.890Z,13.70
2023-02-20T17:20:41.659Z,16.33
2023-02-20T17:23:08.698Z,15.55
2023-02-20T17:25:35.544Z,14.48
2023-02-20T17:28:02.656Z,13.73
2023-02-20T17:30:29.341Z,11.35
2023-02-20T17:32:56.058Z,14.93
2023-02-20T17:35:22.931Z,15.52
2023-02-20T17:37:49.823Z,20.52
2023-02-20T17:40:16.545Z,17.50
2023-02-20T17:42:43.207Z,15.05
2023-02-20T17:45:09.850Z,14.68
2023-02-20T17:47:37.472Z,16.00
2023-02-20T17:50:04.310Z,19.67
2023-02-20T17:52:31.139Z,14.10
2023-02-20T17:54:57.834Z,25.65
2023-02-20T17:57:24.620Z,22.17
2023-02-20T17:59:51.239Z,13.63
2023-02-20T18:02:18.445Z,14.07
2023-02-20T18:04:45.635Z,15.45
2023-02-20T18:07:12.692Z,14.60
2023-02-20T18:09:39.705Z,13.75
2023-02-20T18:12:06.774Z,16.00
2023-02-20T18:14:33.458Z,12.38
2023-02-20T18:17:00.054Z,13.05
2023-02-20T18:19:26.698Z,15.52
2023-02-20T18:21:53.958Z,13.63
2023-02-20T18:24:24.750Z,12.52
2023-02-20T18:26:52.337Z,15.77
2023-02-20T18:29:19.079Z,13.32
2023-02-20T18:31:46.001Z,13.00
2023-02-20T18:34:13.428Z,13.25
2023-02-20T18:36:40.046Z,16.85
2023-02-20T18:39:10.005Z,10.63
2023-02-20T18:41:37.120Z,12.27
2023-02-20T18:44:03.796Z,13.38
2023-02-20T18:46:34.804Z,13.30
2023-02-20T18:49:04.795Z,11.68
2023-02-20T18:51:36.100Z,10.63
2023-02-20T18:54:04.658Z,11.98
2023-02-20T18:56:31.299Z,15.18
2023-02-20T18:58:57.982Z,15.27
2023-02-20T19:01:24.674Z,13.95
2023-02-20T19:03:55.148Z,12.73
2023-02-20T19:06:37.301Z,11.80
2023-02-20T19:09:04.636Z,19.73
2023-02-20T19:11:31.272Z,14.23
2023-02-20T19:13:58.270Z,16.05
2023-02-20T19:16:24.914Z,13.50
2023-02-20T19:18:51.665Z,15.57
2023-02-20T19:21:18.734Z,12.45
2023-02-20T19:23:45.764Z,14.40
2023-02-20T19:26:13.221Z,14.88
2023-02-20T19:28:42.081Z,13.63
2023-02-20T19:31:09.725Z,11.95
2023-02-20T19:33:36.332Z,13.57
2023-02-20T19:36:03.170Z,14.52
2023-02-20T19:38:29.855Z,10.00
2023-02-20T19:40:56.538Z,10.13
2023-02-20T19:43:23.302Z,11.02
2023-02-20T19:45:49.941Z,11.43
2023-02-20T19:48:16.828Z,11.05
2023-02-20T19:50:43.480Z,13.57
2023-02-20T19:53:10.070Z,11.70
2023-02-20T19:55:36.743Z,13.70
2023-02-20T19:58:03.425Z,12.18
2023-02-20T20:00:30.100Z,13.70
2023-02-20T20:02:58.474Z,9.80
2023-02-20T20:05:25.556Z,11.15
2023-02-20T20:07:57.320Z,11.05
2023-02-20T20:10:24.784Z,13.07
2023-02-20T20:12:54.121Z,14.25
2023-02-20T20:15:22.163Z,20.23
2023-02-20T20:17:55.653Z,11.30
2023-02-20T20:20:23.226Z,16.20
2023-02-20T20:22:50.631Z,10.45
2023-02-20T20:25:17.620Z,10.40
2023-02-20T20:27:44.260Z,12.25
2023-02-20T20:30:19.824Z,13.93
2023-02-20T20:32:50.464Z,15.77
2023-02-20T20:35:18.130Z,18.23
2023-02-20T20:37:45.023Z,14.93
2023-02-20T20:40:12.183Z,14.60
2023-02-20T20:42:39.417Z,23.00
2023-02-20T20:45:06.552Z,14.93
2023-02-20T20:47:36.965Z,20.30
2023-02-20T20:50:03.849Z,15.52
2023-02-20T20:52:31.471Z,19.48
2023-02-20T20:54:58.693Z,14.32
2023-02-20T20:57:26.868Z,13.65
2023-02-20T20:59:55.800Z,14.93
2023-02-20T21:02:22.710Z,15.68
2023-02-20T21:04:52.952Z,16.67
2023-02-20T21:07:21.952Z,16.90
2023-02-20T21:09:48.840Z,16.05
2023-02-20T21:12:15.469Z,16.95
2023-02-20T21:14:42.670Z,15.93
2023-02-20T21:17:10.238Z,18.05
2023-02-20T21:19:36.853Z,17.88
2023-02-20T21:22:03.551Z,17.50
2023-02-20T21:24:30.205Z,15.85
2023-02-20T21:26:56.798Z,19.30
2023-02-20T21:29:23.407Z,15.88
2023-02-20T21:31:50.045Z,18.50
2023-02-20T21:34:16.684Z,15.10
2023-02-20T21:36:43.900Z,16.95
2023-02-20T21:39:10.607Z,15.65
2023-02-20T21:41:55.762Z,16.08
2023-02-20T21:44:26.504Z,16.10
2023-02-20T21:47:13.587Z,13.60
2023-02-20T21:49:47.289Z,16.08
2023-02-20T21:52:14.245Z,13.63
2023-02-20T21:54:45.983Z,14.30
2023-02-20T21:57:12.860Z,13.60
2023-02-20T21:59:39.718Z,18.70
2023-02-20T22:02:06.672Z,11.77
2023-02-20T22:04:33.971Z,11.82
2023-02-20T22:07:19.025Z,16.48
2023-02-20T22:10:04.011Z,13.55
2023-02-20T22:12:49.015Z,16.42
2023-02-20T22:15:34.140Z,19.60
2023-02-20T22:18:19.540Z,11.20
2023-02-20T22:21:04.529Z,10.90
2023-02-20T22:23:49.640Z,13.60
2023-02-20T22:26:35.100Z,10.45
2023-02-20T22:29:20.281Z,9.10
2023-02-20T22:32:05.461Z,12.45
2023-02-20T22:34:56.777Z,10.60
2023-02-20T22:37:47.446Z,11.50
2023-02-20T22:40:32.408Z,8.20
2023-02-20T22:43:17.442Z,8.57
2023-02-20T22:46:02.483Z,9.63
2023-02-20T22:48:47.954Z,13.18
2023-02-20T22:51:34.014Z,11.45
2023-02-20T22:54:19.203Z,10.35
2023-02-20T22:57:04.459Z,12.57
2023-02-20T22:59:49.468Z,10.35
2023-02-20T23:02:34.551Z,12.43
2023-02-20T23:05:19.733Z,11.40
2023-02-20T23:08:04.706Z,13.38
2023-02-20T23:10:49.674Z,12.23
2023-02-20T23:13:34.749Z,13.75
2023-02-20T23:16:19.628Z,12.00
2023-02-20T23:19:04.660Z,14.10
2023-02-20T23:21:49.675Z,13.30
2023-02-20T23:24:34.845Z,13.52
2023-02-20T23:27:19.811Z,14.50
2023-02-20T23:30:04.962Z,14.07
2023-02-20T23:32:50.062Z,21.27
2023-02-20T23:35:35.553Z,16.13
2023-02-20T23:38:20.679Z,16.48
2023-02-20T23:41:05.601Z,15.80
2023-02-20T23:43:50.513Z,15.55
2023-02-20T23:46:35.506Z,18.98
2023-02-20T23:49:20.565Z,15.65
2023-02-20T23:52:15.928Z,17.38
2023-02-20T23:55:02.059Z,17.77
2023-02-20T23:57:47.181Z,15.35
